Time;durP1;ratioP1;P1;durP2;ratioP2;P2;SDS_P1;SDS_P2;PMS_P1;PMS_P2;Temp;Humidity;BMP_temperature;BMP_pressure;BME280_temperature;BME280_humidity;BME280_pressure;Samples;Min_cycle;Max_cycle;Signal;HPM_P1;HPM_P2
2023/08/06 00:01:14;;;;;;;;;;;22.20;64.50;;;;;;5032868;28;21218;-54
2023/08/06 00:03:39;;;;;;;;;;;22.20;64.40;;;;;;5030395;28;20012;-54
2023/08/06 00:06:05;;;;;;;;;;;22.20;64.50;;;;;;5033346;28;19914;-55
2023/08/06 00:08:30;;;;;;;;;;;22.20;64.50;;;;;;5032842;28;19992;-54
2023/08/06 00:10:56;;;;;;;;;;;22.30;64.60;;;;;;5031634;28;19970;-54
2023/08/06 00:13:21;;;;;;;;;;;22.30;64.40;;;;;;5035712;28;19913;-54
2023/08/06 00:15:46;;;;;;;;;;;22.30;64.60;;;;;;5019000;28;19921;-54
2023/08/06 00:18:12;;;;;;;;;;;22.30;64.50;;;;;;5019611;28;19932;-54
2023/08/06 00:20:41;;;;;;;;;;;22.30;64.80;;;;;;5032961;28;20327;-54
2023/08/06 00:23:07;;;;;;;;;;;22.30;64.40;;;;;;5032877;28;19917;-55
2023/08/06 00:25:32;;;;;;;;;;;22.30;64.40;;;;;;5031449;28;19920;-54
2023/08/06 00:27:58;;;;;;;;;;;22.30;64.70;;;;;;5031334;28;19920;-55
2023/08/06 00:30:23;;;;;;;;;;;22.30;64.60;;;;;;5030918;28;19914;-54
2023/08/06 00:32:49;;;;;;;;;;;22.30;64.40;;;;;;5032686;28;20051;-54
2023/08/06 00:35:14;;;;;;;;;;;22.30;64.60;;;;;;5032649;28;19917;-54
2023/08/06 00:37:40;;;;;;;;;;;22.30;64.80;;;;;;5031845;28;19949;-54
2023/08/06 00:40:06;;;;;;;;;;;22.30;65.00;;;;;;5033197;28;19913;-54
2023/08/06 00:42:31;;;;;;;;;;;22.30;64.60;;;;;;5020374;28;19955;-54
2023/08/06 00:44:57;;;;;;;;;;;22.20;65.00;;;;;;5031263;28;19956;-54
2023/08/06 00:47:22;;;;;;;;;;;22.20;65.00;;;;;;5029874;28;20035;-54
2023/08/06 00:49:48;;;;;;;;;;;22.20;64.90;;;;;;5032135;28;19931;-54
2023/08/06 00:52:14;;;;;;;;;;;22.20;65.30;;;;;;5032544;28;19919;-54
2023/08/06 00:54:39;;;;;;;;;;;22.20;65.20;;;;;;5032190;28;19921;-54
2023/08/06 00:57:04;;;;;;;;;;;22.20;65.50;;;;;;5031107;28;20385;-54
2023/08/06 00:59:30;;;;;;;;;;;22.20;65.20;;;;;;5031221;28;20456;-54
2023/08/06 01:01:55;;;;;;;;;;;22.20;65.20;;;;;;5029126;28;19909;-54
2023/08/06 01:04:21;;;;;;;;;;;22.20;65.10;;;;;;5031510;28;19957;-54
2023/08/06 01:06:47;;;;;;;;;;;22.20;65.60;;;;;;5032479;28;19913;-54
2023/08/06 01:09:19;;;;;;;;;;;22.20;65.50;;;;;;5029514;28;20020;-54
2023/08/06 01:11:47;;;;;;;;;;;22.20;65.30;;;;;;5021571;28;19993;-55
2023/08/06 01:14:16;;;;;;;;;;;22.20;65.20;;;;;;5030260;28;19910;-54
2023/08/06 01:16:41;;;;;;;;;;;22.20;65.60;;;;;;5027999;28;19914;-54
2023/08/06 01:19:15;;;;;;;;;;;22.20;65.50;;;;;;5015536;28;19989;-54
2023/08/06 01:21:41;;;;;;;;;;;22.20;65.50;;;;;;5031881;28;20284;-54
2023/08/06 01:24:06;;;;;;;;;;;22.20;66.30;;;;;;5014287;28;19925;-55
2023/08/06 01:26:36;;;;;;;;;;;22.20;65.80;;;;;;5033580;28;19913;-54
2023/08/06 01:29:05;;;;;;;;;;;22.20;65.60;;;;;;5028554;28;19920;-54
2023/08/06 01:31:31;;;;;;;;;;;22.20;65.60;;;;;;5029400;28;20196;-54
2023/08/06 01:33:57;;;;;;;;;;;22.20;66.00;;;;;;5031786;28;20419;-54
2023/08/06 01:36:23;;;;;;;;;;;22.20;65.70;;;;;;5030842;28;20365;-54
2023/08/06 01:38:48;;;;;;;;;;;22.20;65.80;;;;;;5030479;28;19920;-55
2023/08/06 01:41:14;;;;;;;;;;;22.20;66.30;;;;;;5021038;28;20372;-55
2023/08/06 01:43:39;;;;;;;;;;;22.20;67.10;;;;;;5030409;28;19917;-54
2023/08/06 01:46:05;;;;;;;;;;;22.20;66.00;;;;;;5032148;28;20640;-55
2023/08/06 01:48:30;;;;;;;;;;;22.20;66.50;;;;;;5031586;28;19921;-54
2023/08/06 01:50:55;;;;;;;;;;;22.20;65.90;;;;;;5031298;28;19913;-54
2023/08/06 01:53:21;;;;;;;;;;;22.20;66.20;;;;;;5041091;28;19919;-55
2023/08/06 01:55:49;;;;;;;;;;;22.20;66.40;;;;;;5037276;28;20361;-55
2023/08/06 01:58:15;;;;;;;;;;;22.20;66.40;;;;;;5028425;28;20043;-54
2023/08/06 02:00:40;;;;;;;;;;;22.20;66.10;;;;;;5031937;28;19949;-54
2023/08/06 02:03:06;;;;;;;;;;;22.20;66.30;;;;;;5031677;28;20319;-55
2023/08/06 02:05:31;;;;;;;;;;;22.10;66.70;;;;;;5031177;28;19917;-54
2023/08/06 02:07:57;;;;;;;;;;;22.10;66.70;;;;;;5028492;28;19921;-55
2023/08/06 02:10:22;;;;;;;;;;;22.10;66.30;;;;;;5031938;28;19913;-54
2023/08/06 02:12:48;;;;;;;;;;;22.20;66.90;;;;;;5029287;28;20292;-55
2023/08/06 02:15:13;;;;;;;;;;;22.10;66.40;;;;;;5003914;28;20317;-54
2023/08/06 02:17:38;;;;;;;;;;;22.10;66.70;;;;;;5015552;28;19909;-54
2023/08/06 02:20:04;;;;;;;;;;;22.10;67.00;;;;;;5021942;28;19965;-54
2023/08/06 02:22:30;;;;;;;;;;;22.10;66.60;;;;;;5034978;28;19913;-54
2023/08/06 02:24:55;;;;;;;;;;;22.10;66.60;;;;;;5047390;28;19917;-55
2023/08/06 02:27:20;;;;;;;;;;;22.10;66.70;;;;;;5033313;28;19983;-54
2023/08/06 02:29:46;;;;;;;;;;;22.10;66.80;;;;;;5015048;28;19919;-55
2023/08/06 02:32:12;;;;;;;;;;;22.10;66.80;;;;;;5035152;28;19909;-54
2023/08/06 02:34:37;;;;;;;;;;;22.10;66.90;;;;;;5034188;28;19920;-55
2023/08/06 02:37:03;;;;;;;;;;;22.10;66.90;;;;;;5054021;28;19912;-54
2023/08/06 02:39:28;;;;;;;;;;;22.10;66.90;;;;;;5051898;28;19940;-55
2023/08/06 02:41:53;;;;;;;;;;;22.10;67.00;;;;;;5033354;28;19909;-55
2023/08/06 02:44:19;;;;;;;;;;;22.10;67.60;;;;;;5033982;28;19990;-54
2023/08/06 02:46:44;;;;;;;;;;;22.10;67.00;;;;;;5034734;28;19919;-54
2023/08/06 02:49:10;;;;;;;;;;;22.10;67.20;;;;;;5033635;28;19928;-55
2023/08/06 02:51:35;;;;;;;;;;;22.10;67.30;;;;;;5034698;28;20007;-54
2023/08/06 02:54:01;;;;;;;;;;;22.10;67.30;;;;;;5034318;28;19913;-54
2023/08/06 02:56:26;;;;;;;;;;;22.10;67.30;;;;;;5032039;28;19917;-54
2023/08/06 02:58:52;;;;;;;;;;;22.10;67.80;;;;;;5033445;28;19970;-54
2023/08/06 03:01:17;;;;;;;;;;;22.10;67.30;;;;;;5033199;28;20297;-54
2023/08/06 03:03:42;;;;;;;;;;;22.10;67.90;;;;;;5034079;28;20285;-55
2023/08/06 03:06:08;;;;;;;;;;;22.10;67.60;;;;;;5039638;28;19915;-54
2023/08/06 03:08:33;;;;;;;;;;;22.10;67.50;;;;;;5045071;28;20010;-54
2023/08/06 03:10:59;;;;;;;;;;;22.00;67.60;;;;;;5034345;28;19959;-54
2023/08/06 03:13:24;;;;;;;;;;;22.00;67.40;;;;;;5033592;28;20336;-55
2023/08/06 03:15:53;;;;;;;;;;;22.00;67.50;;;;;;5033354;28;19920;-54
2023/08/06 03:18:19;;;;;;;;;;;22.00;67.60;;;;;;5041399;28;19955;-54
2023/08/06 03:20:44;;;;;;;;;;;22.00;68.00;;;;;;5048364;28;19913;-54
2023/08/06 03:23:10;;;;;;;;;;;22.00;67.60;;;;;;5033879;28;19917;-54
2023/08/06 03:25:36;;;;;;;;;;;22.00;67.70;;;;;;5031104;28;19963;-54
2023/08/06 03:28:02;;;;;;;;;;;22.00;67.80;;;;;;5032543;28;20266;-54
2023/08/06 03:30:27;;;;;;;;;;;22.00;68.00;;;;;;5044428;28;19991;-55
2023/08/06 03:32:53;;;;;;;;;;;22.00;68.30;;;;;;5046701;28;20280;-54
2023/08/06 03:35:18;;;;;;;;;;;22.00;68.10;;;;;;5033309;28;19909;-55
2023/08/06 03:37:43;;;;;;;;;;;22.00;67.90;;;;;;5033692;28;19913;-54
2023/08/06 03:40:09;;;;;;;;;;;22.00;68.90;;;;;;5031942;28;19912;-54
2023/08/06 03:42:35;;;;;;;;;;;22.00;68.00;;;;;;5033761;28;20370;-54
2023/08/06 03:45:00;;;;;;;;;;;21.90;68.00;;;;;;5032905;28;20000;-54
2023/08/06 03:47:26;;;;;;;;;;;22.00;68.40;;;;;;5033598;28;19909;-54
2023/08/06 03:49:51;;;;;;;;;;;21.90;68.40;;;;;;5035424;28;19929;-54
2023/08/06 03:52:16;;;;;;;;;;;21.90;68.10;;;;;;5033441;28;19913;-54
2023/08/06 03:54:43;;;;;;;;;;;21.90;68.00;;;;;;5030277;28;19966;-54
2023/08/06 03:57:08;;;;;;;;;;;21.90;68.00;;;;;;5033422;28;20279;-55
2023/08/06 03:59:34;;;;;;;;;;;21.90;68.20;;;;;;5032583;28;19919;-54
2023/08/06 04:01:59;;;;;;;;;;;21.90;68.40;;;;;;5033362;28;19956;-54
2023/08/06 04:04:25;;;;;;;;;;;21.90;68.40;;;;;;5032029;28;19917;-54
2023/08/06 04:06:50;;;;;;;;;;;22.00;68.50;;;;;;5031281;28;20000;-54
2023/08/06 04:09:16;;;;;;;;;;;21.90;68.40;;;;;;5033129;28;19909;-54
2023/08/06 04:11:41;;;;;;;;;;;21.90;68.40;;;;;;5032915;28;19913;-55
2023/08/06 04:14:07;;;;;;;;;;;21.90;68.40;;;;;;5043797;28;19952;-55
2023/08/06 04:16:32;;;;;;;;;;;21.90;68.40;;;;;;5033739;28;19928;-54
2023/08/06 04:18:58;;;;;;;;;;;21.90;68.40;;;;;;5032413;28;19917;-54
2023/08/06 04:21:23;;;;;;;;;;;21.90;68.40;;;;;;5029707;28;20361;-54
2023/08/06 04:23:49;;;;;;;;;;;21.90;68.40;;;;;;5032488;28;19913;-54
2023/08/06 04:26:14;;;;;;;;;;;21.90;68.40;;;;;;5032774;28;19931;-54
2023/08/06 04:28:40;;;;;;;;;;;21.90;68.40;;;;;;5030391;28;19924;-54
2023/08/06 04:31:05;;;;;;;;;;;21.90;68.40;;;;;;5038825;28;20372;-55
2023/08/06 04:33:30;;;;;;;;;;;21.90;68.40;;;;;;5038025;28;19913;-54
2023/08/06 04:35:56;;;;;;;;;;;21.90;68.40;;;;;;5030886;28;20408;-55
2023/08/06 04:38:27;;;;;;;;;;;21.80;68.30;;;;;;5032458;28;20293;-54
2023/08/06 04:40:53;;;;;;;;;;;21.80;68.30;;;;;;5031083;28;19912;-54
2023/08/06 04:43:18;;;;;;;;;;;21.80;68.30;;;;;;5034692;28;19924;-54
2023/08/06 04:45:50;;;;;;;;;;;21.80;68.30;;;;;;5032489;28;19944;-54
2023/08/06 04:48:15;;;;;;;;;;;21.80;68.30;;;;;;5032028;28;19921;-54
2023/08/06 04:50:47;;;;;;;;;;;21.80;68.30;;;;;;5031864;28;19909;-54
2023/08/06 04:53:12;;;;;;;;;;;21.80;67.80;;;;;;5011319;28;19952;-54
2023/08/06 04:55:38;;;;;;;;;;;21.80;68.30;;;;;;5031721;28;19971;-54
2023/08/06 04:58:03;;;;;;;;;;;21.80;68.30;;;;;;5031246;28;19920;-55
2023/08/06 05:00:29;;;;;;;;;;;21.80;68.30;;;;;;5032465;28;19920;-54
2023/08/06 05:02:54;;;;;;;;;;;21.80;68.30;;;;;;5030200;28;19924;-55
2023/08/06 05:05:20;;;;;;;;;;;21.80;68.30;;;;;;5028574;28;19920;-54
2023/08/06 05:07:48;;;;;;;;;;;21.80;68.30;;;;;;5029879;28;20012;-54
2023/08/06 05:10:13;;;;;;;;;;;21.80;68.30;;;;;;5030727;28;19996;-54
2023/08/06 05:12:39;;;;;;;;;;;21.80;68.40;;;;;;5029786;28;20008;-54
2023/08/06 05:15:04;;;;;;;;;;;21.80;68.40;;;;;;5031436;28;20052;-54
2023/08/06 05:17:30;;;;;;;;;;;21.80;68.30;;;;;;5030605;28;19948;-55
2023/08/06 05:19:55;;;;;;;;;;;21.80;68.30;;;;;;5030826;28;19917;-54
2023/08/06 05:22:21;;;;;;;;;;;21.80;68.40;;;;;;5032191;28;19909;-54
2023/08/06 05:24:46;;;;;;;;;;;21.80;68.40;;;;;;5031846;28;19910;-54
2023/08/06 05:27:11;;;;;;;;;;;21.80;68.60;;;;;;5030962;28;19913;-55
2023/08/06 05:29:37;;;;;;;;;;;21.80;68.60;;;;;;5031445;28;19939;-54
2023/08/06 05:32:03;;;;;;;;;;;21.80;69.10;;;;;;5031145;28;19958;-55
2023/08/06 05:34:29;;;;;;;;;;;21.70;68.30;;;;;;5028590;28;20369;-55
2023/08/06 05:36:54;;;;;;;;;;;21.80;68.70;;;;;;5031713;28;19924;-54
2023/08/06 05:39:19;;;;;;;;;;;21.80;68.40;;;;;;5031175;28;19960;-54
2023/08/06 05:41:45;;;;;;;;;;;21.80;68.50;;;;;;5040432;28;19920;-54
2023/08/06 05:44:10;;;;;;;;;;;21.80;69.20;;;;;;5050850;28;19908;-54
2023/08/06 05:46:36;;;;;;;;;;;21.80;68.60;;;;;;5048061;28;19995;-54
2023/08/06 05:49:01;;;;;;;;;;;21.80;68.60;;;;;;5031165;28;20021;-54
2023/08/06 05:51:27;;;;;;;;;;;21.80;68.70;;;;;;5033782;28;19979;-54
2023/08/06 05:53:53;;;;;;;;;;;21.80;68.70;;;;;;5035550;28;19913;-54
2023/08/06 05:56:18;;;;;;;;;;;21.80;68.70;;;;;;5034360;28;19924;-54
2023/08/06 05:58:43;;;;;;;;;;;21.80;68.80;;;;;;5034781;28;20012;-54
2023/08/06 06:01:09;;;;;;;;;;;21.80;68.80;;;;;;5032982;28;19924;-54
2023/08/06 06:03:34;;;;;;;;;;;21.80;68.80;;;;;;5034887;28;19935;-54
2023/08/06 06:06:00;;;;;;;;;;;21.70;68.80;;;;;;5035319;28;19919;-54
2023/08/06 06:08:26;;;;;;;;;;;21.80;69.00;;;;;;5033657;28;19913;-54
2023/08/06 06:10:51;;;;;;;;;;;21.70;68.80;;;;;;5034801;28;19917;-54
2023/08/06 06:13:17;;;;;;;;;;;21.80;68.90;;;;;;5034454;28;19943;-54
2023/08/06 06:15:42;;;;;;;;;;;21.80;69.00;;;;;;5034658;28;20004;-54
2023/08/06 06:18:08;;;;;;;;;;;21.80;69.00;;;;;;5032816;28;20384;-54
2023/08/06 06:20:33;;;;;;;;;;;21.80;68.90;;;;;;5042533;28;20305;-54
2023/08/06 06:22:59;;;;;;;;;;;21.80;69.00;;;;;;5033756;28;20284;-54
2023/08/06 06:25:24;;;;;;;;;;;21.80;69.00;;;;;;5035124;28;19913;-54
2023/08/06 06:27:50;;;;;;;;;;;21.70;68.90;;;;;;5034769;28;19913;-54
2023/08/06 06:30:15;;;;;;;;;;;21.70;68.90;;;;;;5032124;28;19924;-55
2023/08/06 06:32:41;;;;;;;;;;;21.70;68.90;;;;;;5034951;28;19917;-53
2023/08/06 06:35:06;;;;;;;;;;;21.70;69.10;;;;;;5034665;28;19990;-54
2023/08/06 06:37:32;;;;;;;;;;;21.70;69.10;;;;;;5034863;28;20338;-54
2023/08/06 06:39:57;;;;;;;;;;;21.70;69.00;;;;;;5034508;28;19920;-54
2023/08/06 06:42:23;;;;;;;;;;;21.70;69.00;;;;;;5034905;28;19952;-54
2023/08/06 06:44:48;;;;;;;;;;;21.70;69.00;;;;;;5033491;28;19921;-55
2023/08/06 06:47:14;;;;;;;;;;;21.70;69.10;;;;;;5032774;28;20365;-54
2023/08/06 06:49:39;;;;;;;;;;;21.70;69.10;;;;;;5033584;28;19929;-54
2023/08/06 06:52:05;;;;;;;;;;;21.70;69.20;;;;;;5034459;28;19920;-54
2023/08/06 06:54:30;;;;;;;;;;;21.70;69.30;;;;;;5045849;28;19920;-54
2023/08/06 06:56:56;;;;;;;;;;;21.70;69.30;;;;;;5031707;28;19921;-55
2023/08/06 06:59:21;;;;;;;;;;;21.70;69.40;;;;;;5023169;28;19913;-54
2023/08/06 07:01:46;;;;;;;;;;;21.70;69.30;;;;;;5026272;28;19917;-55
2023/08/06 07:04:12;;;;;;;;;;;21.70;69.40;;;;;;5029200;28;19913;-55
2023/08/06 07:06:38;;;;;;;;;;;21.70;69.50;;;;;;5031558;28;19920;-54
2023/08/06 07:09:03;;;;;;;;;;;21.70;69.50;;;;;;5031862;28;20071;-55
2023/08/06 07:11:29;;;;;;;;;;;21.70;69.50;;;;;;5032550;28;19917;-54
2023/08/06 07:14:00;;;;;;;;;;;21.70;69.50;;;;;;5032888;28;19932;-53
2023/08/06 07:16:26;;;;;;;;;;;21.70;69.70;;;;;;5005969;28;20506;-54
2023/08/06 07:18:52;;;;;;;;;;;21.70;69.70;;;;;;5027204;28;19913;-54
2023/08/06 07:21:18;;;;;;;;;;;21.80;69.90;;;;;;5034107;28;19920;-54
2023/08/06 07:23:43;;;;;;;;;;;21.70;69.90;;;;;;5035107;28;19917;-54
2023/08/06 07:26:09;;;;;;;;;;;21.70;69.70;;;;;;5034106;28;19956;-54
2023/08/06 07:28:34;;;;;;;;;;;21.70;70.00;;;;;;5031300;28;19917;-54
2023/08/06 07:31:00;;;;;;;;;;;21.70;69.90;;;;;;5032016;28;19917;-56
2023/08/06 07:33:25;;;;;;;;;;;21.70;70.10;;;;;;5031702;28;20292;-54
2023/08/06 07:35:51;;;;;;;;;;;21.70;70.00;;;;;;5033534;28;20320;-54
2023/08/06 07:38:16;;;;;;;;;;;21.70;70.20;;;;;;5033555;28;19913;-53
2023/08/06 07:40:41;;;;;;;;;;;21.70;70.40;;;;;;5034057;28;20369;-54
2023/08/06 07:43:07;;;;;;;;;;;21.70;70.60;;;;;;5013065;28;20333;-54
2023/08/06 07:45:35;;;;;;;;;;;21.70;70.50;;;;;;5011516;28;19921;-54
2023/08/06 07:48:01;;;;;;;;;;;21.70;70.50;;;;;;5031548;28;20035;-54
2023/08/06 07:50:27;;;;;;;;;;;21.70;70.50;;;;;;5033682;28;19921;-54
2023/08/06 07:52:52;;;;;;;;;;;21.70;70.30;;;;;;5031730;28;19960;-54
2023/08/06 07:55:17;;;;;;;;;;;21.70;70.40;;;;;;5033765;28;20352;-54
2023/08/06 07:57:43;;;;;;;;;;;21.70;70.20;;;;;;5029039;28;19917;-54
2023/08/06 08:00:09;;;;;;;;;;;21.70;70.40;;;;;;5030709;28;19952;-54
2023/08/06 08:02:35;;;;;;;;;;;21.70;70.60;;;;;;5030440;28;19913;-54
2023/08/06 08:05:00;;;;;;;;;;;21.70;70.40;;;;;;5031155;28;19982;-55
2023/08/06 08:07:28;;;;;;;;;;;21.70;70.40;;;;;;5026498;28;19909;-54
2023/08/06 08:09:53;;;;;;;;;;;21.70;70.40;;;;;;5029585;28;19917;-54
2023/08/06 08:12:19;;;;;;;;;;;21.70;70.50;;;;;;5031341;28;19909;-54
2023/08/06 08:14:45;;;;;;;;;;;21.70;70.50;;;;;;5032050;28;19924;-54
2023/08/06 08:17:11;;;;;;;;;;;21.70;70.60;;;;;;5032995;28;20010;-55
2023/08/06 08:19:36;;;;;;;;;;;21.70;70.40;;;;;;5031975;28;20428;-54
2023/08/06 08:22:01;;;;;;;;;;;21.70;70.50;;;;;;5033090;28;19920;-55
2023/08/06 08:24:27;;;;;;;;;;;21.70;70.50;;;;;;5032437;28;19913;-54
2023/08/06 08:26:53;;;;;;;;;;;21.80;70.70;;;;;;5032734;28;20392;-54
2023/08/06 08:29:21;;;;;;;;;;;21.70;70.60;;;;;;5029586;28;19916;-55
2023/08/06 08:31:49;;;;;;;;;;;21.70;70.60;;;;;;5032682;28;19919;-54
2023/08/06 08:34:15;;;;;;;;;;;21.80;70.80;;;;;;5042105;28;19917;-54
2023/08/06 08:36:40;;;;;;;;;;;21.70;70.70;;;;;;5032121;28;20328;-55
2023/08/06 08:39:05;;;;;;;;;;;21.70;70.80;;;;;;5032408;28;20007;-54
2023/08/06 08:41:31;;;;;;;;;;;21.70;70.80;;;;;;5032681;28;19909;-54
2023/08/06 08:43:58;;;;;;;;;;;21.70;70.90;;;;;;5030392;28;19913;-53
2023/08/06 08:46:23;;;;;;;;;;;21.70;70.80;;;;;;5014743;28;20021;-54
2023/08/06 08:48:48;;;;;;;;;;;21.70;70.90;;;;;;5031451;28;20007;-54
2023/08/06 08:51:15;;;;;;;;;;;21.80;70.90;;;;;;5029701;28;19995;-54
2023/08/06 08:53:42;;;;;;;;;;;21.70;70.90;;;;;;5016554;28;19992;-54
2023/08/06 08:56:07;;;;;;;;;;;21.70;71.00;;;;;;5030527;28;19960;-54
2023/08/06 08:58:32;;;;;;;;;;;21.80;71.20;;;;;;5029770;28;19956;-54
2023/08/06 09:00:58;;;;;;;;;;;21.80;71.10;;;;;;5032205;28;19967;-54
2023/08/06 09:03:23;;;;;;;;;;;21.70;71.10;;;;;;5032958;28;20051;-54
2023/08/06 09:05:50;;;;;;;;;;;21.80;71.10;;;;;;5032332;28;20000;-54
2023/08/06 09:08:17;;;;;;;;;;;21.80;71.10;;;;;;5030428;28;19917;-54
2023/08/06 09:10:43;;;;;;;;;;;21.80;71.40;;;;;;5027469;28;20281;-54
2023/08/06 09:13:08;;;;;;;;;;;21.70;71.10;;;;;;5021518;28;19913;-54
2023/08/06 09:15:34;;;;;;;;;;;21.70;71.30;;;;;;5011115;28;20457;-54
2023/08/06 09:17:59;;;;;;;;;;;21.70;71.20;;;;;;5018575;28;20373;-54
2023/08/06 09:20:25;;;;;;;;;;;21.80;71.30;;;;;;5044303;28;20023;-54
2023/08/06 09:22:52;;;;;;;;;;;21.70;71.30;;;;;;5036774;28;19920;-54
2023/08/06 09:25:23;;;;;;;;;;;21.70;71.20;;;;;;5028725;28;19924;-54
2023/08/06 09:27:48;;;;;;;;;;;21.80;71.30;;;;;;5035938;28;19913;-55
2023/08/06 09:30:19;;;;;;;;;;;21.80;71.40;;;;;;5035669;28;19914;-54
2023/08/06 09:32:48;;;;;;;;;;;21.80;71.30;;;;;;5034563;28;19913;-54
2023/08/06 09:35:15;;;;;;;;;;;21.80;71.40;;;;;;5031483;28;19949;-54
2023/08/06 09:37:40;;;;;;;;;;;21.80;71.40;;;;;;5036030;28;19917;-54
2023/08/06 09:40:21;;;;;;;;;;;21.70;71.30;;;;;;5033658;28;19920;-54
2023/08/06 09:42:47;;;;;;;;;;;21.80;71.40;;;;;;5017904;28;19956;-54
2023/08/06 09:45:15;;;;;;;;;;;21.80;71.50;;;;;;5035212;28;19940;-54
2023/08/06 09:47:41;;;;;;;;;;;21.80;71.40;;;;;;5035584;28;20339;-54
2023/08/06 09:50:08;;;;;;;;;;;21.80;71.40;;;;;;5034399;28;19921;-54
2023/08/06 09:52:34;;;;;;;;;;;21.80;71.50;;;;;;5032340;28;19913;-54
2023/08/06 09:54:59;;;;;;;;;;;21.80;71.60;;;;;;5035483;28;19909;-54
2023/08/06 09:57:25;;;;;;;;;;;21.80;71.50;;;;;;5035717;28;19917;-54
2023/08/06 09:59:50;;;;;;;;;;;21.80;71.60;;;;;;5034653;28;19924;-53
2023/08/06 10:02:16;;;;;;;;;;;21.80;71.70;;;;;;5035872;28;19913;-54
2023/08/06 10:04:42;;;;;;;;;;;21.80;71.80;;;;;;5032682;28;19913;-53
2023/08/06 10:07:08;;;;;;;;;;;21.80;71.60;;;;;;4999596;28;19924;-54
2023/08/06 10:09:33;;;;;;;;;;;21.80;71.70;;;;;;5034431;28;19913;-54
2023/08/06 10:11:58;;;;;;;;;;;21.80;71.80;;;;;;5033451;28;19917;-54
2023/08/06 10:14:26;;;;;;;;;;;21.80;71.60;;;;;;5039263;28;19977;-53
2023/08/06 10:16:51;;;;;;;;;;;21.80;71.60;;;;;;5033338;28;19920;-54
2023/08/06 10:19:17;;;;;;;;;;;21.80;71.60;;;;;;5032634;28;19913;-54
2023/08/06 10:21:50;;;;;;;;;;;21.80;71.60;;;;;;5035081;28;19909;-55
2023/08/06 10:24:15;;;;;;;;;;;21.80;71.60;;;;;;5011488;28;19917;-54
2023/08/06 10:26:41;;;;;;;;;;;21.80;71.70;;;;;;5041560;28;20000;-54
2023/08/06 10:29:34;;;;;;;;;;;21.80;71.80;;;;;;5021743;28;19967;-54
2023/08/06 10:32:00;;;;;;;;;;;21.80;71.80;;;;;;5045514;28;20333;-54
2023/08/06 10:34:37;;;;;;;;;;;21.80;72.30;;;;;;5047931;28;19986;-54
2023/08/06 10:37:03;;;;;;;;;;;21.80;71.80;;;;;;5015627;28;19975;-54
2023/08/06 10:39:28;;;;;;;;;;;21.80;71.70;;;;;;5033413;28;20373;-54
2023/08/06 10:41:53;;;;;;;;;;;21.80;71.60;;;;;;5036165;28;20007;-55
2023/08/06 10:44:19;;;;;;;;;;;21.80;71.50;;;;;;5034003;28;19913;-54
2023/08/06 10:46:49;;;;;;;;;;;21.80;71.70;;;;;;5034836;28;19913;-53
2023/08/06 10:49:16;;;;;;;;;;;21.80;71.50;;;;;;5034354;28;19932;-53
2023/08/06 10:51:41;;;;;;;;;;;21.80;71.50;;;;;;5026129;28;19968;-53
2023/08/06 10:54:06;;;;;;;;;;;21.90;71.50;;;;;;5016285;28;19913;-53
2023/08/06 10:56:32;;;;;;;;;;;21.80;71.70;;;;;;5029341;28;19938;-53
2023/08/06 10:58:57;;;;;;;;;;;21.80;71.80;;;;;;5015861;28;19924;-53
2023/08/06 11:01:23;;;;;;;;;;;21.90;72.00;;;;;;5034405;28;19956;-54
2023/08/06 11:03:50;;;;;;;;;;;21.80;72.10;;;;;;5034423;28;19963;-53
2023/08/06 11:06:19;;;;;;;;;;;21.80;72.70;;;;;;5032228;28;19917;-54
2023/08/06 11:08:51;;;;;;;;;;;21.90;73.20;;;;;;5032019;28;19913;-54
2023/08/06 11:11:17;;;;;;;;;;;21.80;73.10;;;;;;5033930;28;20009;-53
2023/08/06 11:13:49;;;;;;;;;;;21.80;73.70;;;;;;5033501;28;20439;-53
2023/08/06 11:16:18;;;;;;;;;;;21.90;74.40;;;;;;5033290;28;19917;-53
2023/08/06 11:18:44;;;;;;;;;;;21.90;74.60;;;;;;5042471;28;20001;-53
2023/08/06 11:21:09;;;;;;;;;;;21.90;74.60;;;;;;5036827;28;20026;-54
2023/08/06 11:23:35;;;;;;;;;;;21.90;75.00;;;;;;5030486;28;19969;-54
2023/08/06 11:26:00;;;;;;;;;;;21.90;74.80;;;;;;5033547;28;19916;-53
2023/08/06 11:28:26;;;;;;;;;;;21.90;74.30;;;;;;5031849;28;20027;-53
2023/08/06 11:30:51;;;;;;;;;;;21.90;73.20;;;;;;5034072;28;19913;-53
2023/08/06 11:33:21;;;;;;;;;;;21.90;73.60;;;;;;5032599;28;19984;-53
2023/08/06 11:35:47;;;;;;;;;;;21.90;73.60;;;;;;5026891;28;19917;-53
2023/08/06 11:38:13;;;;;;;;;;;21.90;73.30;;;;;;5031632;28;19967;-53
2023/08/06 11:40:38;;;;;;;;;;;21.90;73.50;;;;;;5037128;28;20393;-52
2023/08/06 11:43:05;;;;;;;;;;;21.80;73.10;;;;;;5052893;28;19909;-52
2023/08/06 11:45:30;;;;;;;;;;;21.80;72.90;;;;;;5050174;28;19920;-52
2023/08/06 11:47:56;;;;;;;;;;;21.80;72.80;;;;;;5033082;28;19921;-52
2023/08/06 11:50:22;;;;;;;;;;;21.80;72.60;;;;;;5030298;28;19917;-53
2023/08/06 11:52:47;;;;;;;;;;;21.80;72.70;;;;;;5031946;28;19955;-52
2023/08/06 11:55:14;;;;;;;;;;;21.90;72.80;;;;;;5032290;28;19913;-53
2023/08/06 11:57:43;;;;;;;;;;;21.80;72.90;;;;;;5032421;28;19928;-53
2023/08/06 12:00:09;;;;;;;;;;;21.80;73.20;;;;;;5038150;28;19959;-52
2023/08/06 12:02:38;;;;;;;;;;;21.80;74.10;;;;;;5017731;28;19960;-54
2023/08/06 12:05:06;;;;;;;;;;;21.80;73.30;;;;;;5027854;28;19913;-53
2023/08/06 12:07:32;;;;;;;;;;;21.90;73.50;;;;;;5032305;28;20341;-52
2023/08/06 12:09:58;;;;;;;;;;;21.80;73.50;;;;;;5032787;28;19920;-52
2023/08/06 12:12:24;;;;;;;;;;;21.80;73.40;;;;;;5042784;28;19920;-52
2023/08/06 12:14:49;;;;;;;;;;;21.90;73.60;;;;;;5032023;28;20385;-53
2023/08/06 12:17:14;;;;;;;;;;;21.80;73.60;;;;;;5033373;28;19917;-53
2023/08/06 12:19:40;;;;;;;;;;;21.80;73.40;;;;;;5029595;28;19999;-53
2023/08/06 12:22:05;;;;;;;;;;;21.90;73.70;;;;;;5033065;28;19920;-52
2023/08/06 12:24:31;;;;;;;;;;;21.80;73.50;;;;;;5032499;28;19959;-53
2023/08/06 12:26:57;;;;;;;;;;;21.80;73.80;;;;;;5032511;28;20262;-52
2023/08/06 12:29:23;;;;;;;;;;;21.80;73.70;;;;;;5029909;28;19920;-53
2023/08/06 12:31:48;;;;;;;;;;;21.80;73.70;;;;;;5031397;28;19913;-53
2023/08/06 12:34:14;;;;;;;;;;;21.80;73.80;;;;;;5029983;28;20008;-52
2023/08/06 12:36:39;;;;;;;;;;;21.80;73.80;;;;;;5032611;28;19956;-53
2023/08/06 12:39:05;;;;;;;;;;;21.90;74.00;;;;;;5032575;28;19929;-53
2023/08/06 12:41:30;;;;;;;;;;;21.90;74.10;;;;;;5030575;28;20396;-52
2023/08/06 12:43:56;;;;;;;;;;;21.90;74.00;;;;;;5040835;28;20327;-53
2023/08/06 12:46:21;;;;;;;;;;;21.90;73.90;;;;;;5037753;28;19913;-52
2023/08/06 12:48:48;;;;;;;;;;;21.90;74.10;;;;;;5032103;28;19925;-53
2023/08/06 12:51:13;;;;;;;;;;;21.90;73.80;;;;;;5032711;28;20050;-53
2023/08/06 12:53:39;;;;;;;;;;;21.90;74.20;;;;;;5028516;28;20363;-52
2023/08/06 12:56:05;;;;;;;;;;;21.90;74.00;;;;;;5041069;28;19921;-52
2023/08/06 12:58:30;;;;;;;;;;;21.90;74.20;;;;;;5036839;28;20431;-53
2023/08/06 13:00:56;;;;;;;;;;;21.90;74.20;;;;;;5031043;28;19917;-53
2023/08/06 13:03:22;;;;;;;;;;;21.90;74.10;;;;;;5028124;28;20370;-52
2023/08/06 13:05:47;;;;;;;;;;;21.90;74.00;;;;;;5030404;28;19923;-52
2023/08/06 13:08:12;;;;;;;;;;;21.90;74.00;;;;;;5042726;28;19913;-52
2023/08/06 13:10:38;;;;;;;;;;;21.90;74.10;;;;;;5039339;28;20388;-54
2023/08/06 13:13:03;;;;;;;;;;;21.90;73.90;;;;;;5030416;28;19953;-53
2023/08/06 13:15:29;;;;;;;;;;;21.90;73.80;;;;;;5032124;28;19912;-53
2023/08/06 13:17:54;;;;;;;;;;;21.90;73.80;;;;;;5026282;28;20377;-54
2023/08/06 13:20:20;;;;;;;;;;;21.90;73.80;;;;;;5032031;28;19992;-53
2023/08/06 13:22:46;;;;;;;;;;;21.90;73.80;;;;;;5031990;28;19909;-52
2023/08/06 13:25:14;;;;;;;;;;;21.90;73.80;;;;;;5033202;28;20376;-52
2023/08/06 13:27:39;;;;;;;;;;;21.90;73.80;;;;;;5028268;28;19941;-53
2023/08/06 13:30:05;;;;;;;;;;;21.90;73.80;;;;;;5028255;28;19963;-52
2023/08/06 13:32:32;;;;;;;;;;;21.90;73.70;;;;;;5029835;28;19924;-52
2023/08/06 13:34:57;;;;;;;;;;;21.90;73.80;;;;;;5031798;28;19928;-53
2023/08/06 13:37:23;;;;;;;;;;;22.00;74.10;;;;;;5032025;28;20257;-52
2023/08/06 13:39:48;;;;;;;;;;;21.90;73.80;;;;;;5030747;28;19921;-52
2023/08/06 13:42:14;;;;;;;;;;;22.00;74.10;;;;;;5032926;28;19913;-52
2023/08/06 13:44:39;;;;;;;;;;;22.00;73.90;;;;;;5029205;28;19921;-52
2023/08/06 13:47:05;;;;;;;;;;;21.90;73.80;;;;;;5031986;28;19913;-53
2023/08/06 13:49:30;;;;;;;;;;;22.00;73.90;;;;;;5031373;28;20014;-52
2023/08/06 13:51:55;;;;;;;;;;;22.00;73.80;;;;;;5031685;28;19959;-53
2023/08/06 13:54:21;;;;;;;;;;;22.00;73.80;;;;;;5030827;28;19913;-53
2023/08/06 13:56:46;;;;;;;;;;;22.00;73.80;;;;;;5031796;28;19913;-53
2023/08/06 13:59:14;;;;;;;;;;;22.00;73.70;;;;;;5029214;28;23365;-53
2023/08/06 14:01:39;;;;;;;;;;;22.00;73.80;;;;;;5030325;28;19913;-53
2023/08/06 14:04:05;;;;;;;;;;;22.00;73.70;;;;;;5031608;28;19920;-52
2023/08/06 14:06:31;;;;;;;;;;;22.00;73.80;;;;;;5031565;28;20369;-53
2023/08/06 14:08:56;;;;;;;;;;;22.00;73.80;;;;;;5029511;28;20015;-53